sensor_id;sensor_type;location;lat;lon;timestamp;P1;durP1;ratioP1;P2;durP2;ratioP2
10174;SDS011;18221;38.704;0.152;2024-02-26T00:00:17;6.50;;;2.33;;
10174;SDS011;18221;38.704;0.152;2024-02-26T00:02:46;10.60;;;2.80;;
10174;SDS011;18221;38.704;0.152;2024-02-26T00:05:13;9.07;;;2.43;;
10174;SDS011;18221;38.704;0.152;2024-02-26T00:07:41;7.47;;;2.50;;
10174;SDS011;18221;38.704;0.152;2024-02-26T00:10:10;15.07;;;2.63;;
10174;SDS011;18221;38.704;0.152;2024-02-26T00:12:38;12.03;;;2.27;;
10174;SDS011;18221;38.704;0.152;2024-02-26T00:15:06;9.13;;;2.63;;
10174;SDS011;18221;38.704;0.152;2024-02-26T00:17:36;5.87;;;2.10;;
10174;SDS011;18221;38.704;0.152;2024-02-26T00:20:05;9.97;;;2.40;;
10174;SDS011;18221;38.704;0.152;2024-02-26T00:22:33;9.63;;;2.30;;
10174;SDS011;18221;38.704;0.152;2024-02-26T00:25:01;6.03;;;2.30;;
10174;SDS011;18221;38.704;0.152;2024-02-26T00:27:31;7.77;;;2.40;;
10174;SDS011;18221;38.704;0.152;2024-02-26T00:29:58;7.57;;;2.50;;
10174;SDS011;18221;38.704;0.152;2024-02-26T00:32:27;5.90;;;1.90;;
10174;SDS011;18221;38.704;0.152;2024-02-26T00:34:56;7.03;;;2.10;;
10174;SDS011;18221;38.704;0.152;2024-02-26T00:37:24;7.40;;;2.20;;
10174;SDS011;18221;38.704;0.152;2024-02-26T00:39:51;6.23;;;1.90;;
10174;SDS011;18221;38.704;0.152;2024-02-26T00:42:19;6.53;;;2.30;;
10174;SDS011;18221;38.704;0.152;2024-02-26T00:44:47;9.63;;;2.10;;
10174;SDS011;18221;38.704;0.152;2024-02-26T00:47:14;6.97;;;2.30;;
10174;SDS011;18221;38.704;0.152;2024-02-26T00:49:42;4.63;;;2.20;;
10174;SDS011;18221;38.704;0.152;2024-02-26T01:02:51;4.40;;;1.60;;
10174;SDS011;18221;38.704;0.152;2024-02-26T01:05:19;4.10;;;1.97;;
10174;SDS011;18221;38.704;0.152;2024-02-26T01:07:47;4.20;;;1.80;;
10174;SDS011;18221;38.704;0.152;2024-02-26T01:10:15;6.00;;;1.73;;
10174;SDS011;18221;38.704;0.152;2024-02-26T01:12:43;5.20;;;1.70;;
10174;SDS011;18221;38.704;0.152;2024-02-26T01:15:11;5.47;;;1.70;;
10174;SDS011;18221;38.704;0.152;2024-02-26T01:17:38;5.17;;;1.87;;
10174;SDS011;18221;38.704;0.152;2024-02-26T01:20:08;6.67;;;1.70;;
10174;SDS011;18221;38.704;0.152;2024-02-26T01:22:37;4.80;;;1.77;;
10174;SDS011;18221;38.704;0.152;2024-02-26T01:25:06;5.13;;;1.70;;
10174;SDS011;18221;38.704;0.152;2024-02-26T01:27:35;5.20;;;2.20;;
10174;SDS011;18221;38.704;0.152;2024-02-26T01:30:04;4.70;;;1.63;;
10174;SDS011;18221;38.704;0.152;2024-02-26T01:32:33;5.13;;;1.53;;
10174;SDS011;18221;38.704;0.152;2024-02-26T01:35:02;3.30;;;1.70;;
10174;SDS011;18221;38.704;0.152;2024-02-26T01:37:31;2.20;;;1.50;;
10174;SDS011;18221;38.704;0.152;2024-02-26T01:39:59;4.77;;;1.67;;
10174;SDS011;18221;38.704;0.152;2024-02-26T01:42:29;4.63;;;1.80;;
10174;SDS011;18221;38.704;0.152;2024-02-26T01:44:57;4.80;;;1.43;;
10174;SDS011;18221;38.704;0.152;2024-02-26T01:47:25;3.53;;;1.40;;
10174;SDS011;18221;38.704;0.152;2024-02-26T01:49:55;4.23;;;1.40;;
10174;SDS011;18221;38.704;0.152;2024-02-26T01:52:23;3.30;;;1.40;;
10174;SDS011;18221;38.704;0.152;2024-02-26T01:54:53;5.20;;;1.60;;
10174;SDS011;18221;38.704;0.152;2024-02-26T01:57:21;6.43;;;2.30;;
10174;SDS011;18221;38.704;0.152;2024-02-26T01:59:49;1.57;;;1.03;;
10174;SDS011;18221;38.704;0.152;2024-02-26T02:02:17;4.10;;;1.50;;
10174;SDS011;18221;38.704;0.152;2024-02-26T02:04:44;6.13;;;1.37;;
10174;SDS011;18221;38.704;0.152;2024-02-26T02:07:12;3.43;;;1.40;;
10174;SDS011;18221;38.704;0.152;2024-02-26T02:09:40;5.37;;;1.50;;
10174;SDS011;18221;38.704;0.152;2024-02-26T02:12:10;5.03;;;1.53;;
10174;SDS011;18221;38.704;0.152;2024-02-26T02:14:38;2.27;;;1.47;;
10174;SDS011;18221;38.704;0.152;2024-02-26T02:17:06;3.00;;;1.47;;
10174;SDS011;18221;38.704;0.152;2024-02-26T02:19:34;3.17;;;1.57;;
10174;SDS011;18221;38.704;0.152;2024-02-26T02:22:03;4.23;;;1.63;;
10174;SDS011;18221;38.704;0.152;2024-02-26T02:24:31;5.13;;;1.80;;
10174;SDS011;18221;38.704;0.152;2024-02-26T02:26:59;2.13;;;1.40;;
10174;SDS011;18221;38.704;0.152;2024-02-26T02:29:27;6.33;;;1.63;;
10174;SDS011;18221;38.704;0.152;2024-02-26T02:31:55;3.80;;;1.40;;
10174;SDS011;18221;38.704;0.152;2024-02-26T02:34:25;4.37;;;2.17;;
10174;SDS011;18221;38.704;0.152;2024-02-26T02:36:54;3.37;;;1.47;;
10174;SDS011;18221;38.704;0.152;2024-02-26T02:39:23;3.97;;;1.67;;
10174;SDS011;18221;38.704;0.152;2024-02-26T02:41:51;8.10;;;2.10;;
10174;SDS011;18221;38.704;0.152;2024-02-26T02:44:19;6.10;;;1.90;;
10174;SDS011;18221;38.704;0.152;2024-02-26T02:46:46;2.70;;;1.73;;
10174;SDS011;18221;38.704;0.152;2024-02-26T02:49:15;5.53;;;1.60;;
10174;SDS011;18221;38.704;0.152;2024-02-26T02:51:43;7.97;;;2.03;;
10174;SDS011;18221;38.704;0.152;2024-02-26T02:54:11;5.27;;;1.80;;
10174;SDS011;18221;38.704;0.152;2024-02-26T02:56:40;6.00;;;2.00;;
10174;SDS011;18221;38.704;0.152;2024-02-26T02:59:08;3.47;;;1.80;;
10174;SDS011;18221;38.704;0.152;2024-02-26T03:01:36;4.47;;;1.60;;
10174;SDS011;18221;38.704;0.152;2024-02-26T03:04:04;5.33;;;1.90;;
10174;SDS011;18221;38.704;0.152;2024-02-26T03:06:32;7.70;;;1.90;;
10174;SDS011;18221;38.704;0.152;2024-02-26T03:08:59;5.77;;;1.90;;
10174;SDS011;18221;38.704;0.152;2024-02-26T03:11:27;4.77;;;1.60;;
10174;SDS011;18221;38.704;0.152;2024-02-26T03:13:56;3.90;;;1.60;;
10174;SDS011;18221;38.704;0.152;2024-02-26T03:16:24;5.43;;;1.80;;
10174;SDS011;18221;38.704;0.152;2024-02-26T03:18:53;6.30;;;1.70;;
10174;SDS011;18221;38.704;0.152;2024-02-26T03:21:21;5.80;;;1.87;;
10174;SDS011;18221;38.704;0.152;2024-02-26T03:23:48;4.13;;;1.40;;
10174;SDS011;18221;38.704;0.152;2024-02-26T03:26:16;6.27;;;1.60;;
10174;SDS011;18221;38.704;0.152;2024-02-26T03:28:44;6.70;;;1.53;;
10174;SDS011;18221;38.704;0.152;2024-02-26T03:31:13;7.10;;;1.60;;
10174;SDS011;18221;38.704;0.152;2024-02-26T03:33:41;7.73;;;1.73;;
10174;SDS011;18221;38.704;0.152;2024-02-26T03:36:09;4.87;;;1.73;;
10174;SDS011;18221;38.704;0.152;2024-02-26T03:38:37;3.03;;;1.50;;
10174;SDS011;18221;38.704;0.152;2024-02-26T03:41:05;8.10;;;1.80;;
10174;SDS011;18221;38.704;0.152;2024-02-26T03:43:33;5.67;;;1.60;;
10174;SDS011;18221;38.704;0.152;2024-02-26T03:46:01;6.50;;;1.70;;
10174;SDS011;18221;38.704;0.152;2024-02-26T03:48:31;7.93;;;1.80;;
10174;SDS011;18221;38.704;0.152;2024-02-26T03:50:59;6.90;;;1.90;;
10174;SDS011;18221;38.704;0.152;2024-02-26T03:53:27;5.97;;;1.87;;
10174;SDS011;18221;38.704;0.152;2024-02-26T03:55:55;3.27;;;1.53;;
10174;SDS011;18221;38.704;0.152;2024-02-26T03:58:23;4.27;;;1.67;;
10174;SDS011;18221;38.704;0.152;2024-02-26T04:00:50;4.90;;;1.70;;
10174;SDS011;18221;38.704;0.152;2024-02-26T04:03:18;3.30;;;1.33;;
10174;SDS011;18221;38.704;0.152;2024-02-26T04:05:48;4.93;;;1.50;;
10174;SDS011;18221;38.704;0.152;2024-02-26T04:08:19;5.70;;;2.00;;
10174;SDS011;18221;38.704;0.152;2024-02-26T04:10:47;8.07;;;1.50;;
10174;SDS011;18221;38.704;0.152;2024-02-26T04:13:15;6.00;;;1.50;;
10174;SDS011;18221;38.704;0.152;2024-02-26T04:15:44;6.03;;;1.77;;
10174;SDS011;18221;38.704;0.152;2024-02-26T04:18:12;6.53;;;1.83;;
10174;SDS011;18221;38.704;0.152;2024-02-26T04:20:40;5.27;;;1.43;;
10174;SDS011;18221;38.704;0.152;2024-02-26T04:23:10;5.27;;;1.67;;
10174;SDS011;18221;38.704;0.152;2024-02-26T04:25:38;2.40;;;1.40;;
10174;SDS011;18221;38.704;0.152;2024-02-26T04:28:05;5.43;;;1.80;;
10174;SDS011;18221;38.704;0.152;2024-02-26T04:30:33;5.70;;;1.80;;
10174;SDS011;18221;38.704;0.152;2024-02-26T04:33:01;6.73;;;2.07;;
10174;SDS011;18221;38.704;0.152;2024-02-26T04:35:29;4.80;;;1.90;;
10174;SDS011;18221;38.704;0.152;2024-02-26T04:37:57;4.03;;;1.70;;
10174;SDS011;18221;38.704;0.152;2024-02-26T04:40:26;4.50;;;1.50;;
10174;SDS011;18221;38.704;0.152;2024-02-26T04:42:54;4.40;;;1.80;;
10174;SDS011;18221;38.704;0.152;2024-02-26T04:45:22;4.60;;;1.50;;
10174;SDS011;18221;38.704;0.152;2024-02-26T04:47:50;6.73;;;2.00;;
10174;SDS011;18221;38.704;0.152;2024-02-26T04:50:18;7.53;;;2.13;;
10174;SDS011;18221;38.704;0.152;2024-02-26T04:52:46;7.60;;;1.90;;
10174;SDS011;18221;38.704;0.152;2024-02-26T04:55:14;8.30;;;1.87;;
10174;SDS011;18221;38.704;0.152;2024-02-26T04:57:44;4.47;;;1.73;;
10174;SDS011;18221;38.704;0.152;2024-02-26T05:00:12;2.23;;;1.40;;
10174;SDS011;18221;38.704;0.152;2024-02-26T05:02:41;5.23;;;1.70;;
10174;SDS011;18221;38.704;0.152;2024-02-26T05:05:09;5.10;;;2.07;;
10174;SDS011;18221;38.704;0.152;2024-02-26T05:07:39;4.40;;;1.40;;
10174;SDS011;18221;38.704;0.152;2024-02-26T05:10:08;3.60;;;1.40;;
10174;SDS011;18221;38.704;0.152;2024-02-26T05:12:37;5.50;;;1.70;;
10174;SDS011;18221;38.704;0.152;2024-02-26T05:15:09;2.80;;;1.33;;
10174;SDS011;18221;38.704;0.152;2024-02-26T05:17:43;4.53;;;1.63;;
10174;SDS011;18221;38.704;0.152;2024-02-26T05:20:11;4.93;;;1.77;;
10174;SDS011;18221;38.704;0.152;2024-02-26T05:22:39;7.67;;;2.00;;
10174;SDS011;18221;38.704;0.152;2024-02-26T05:25:07;4.87;;;1.40;;
10174;SDS011;18221;38.704;0.152;2024-02-26T05:27:35;4.57;;;1.97;;
10174;SDS011;18221;38.704;0.152;2024-02-26T05:30:03;5.67;;;1.80;;
10174;SDS011;18221;38.704;0.152;2024-02-26T05:32:34;5.13;;;1.77;;
10174;SDS011;18221;38.704;0.152;2024-02-26T05:35:02;4.23;;;1.47;;
10174;SDS011;18221;38.704;0.152;2024-02-26T05:37:30;4.23;;;1.70;;
10174;SDS011;18221;38.704;0.152;2024-02-26T05:39:58;3.50;;;1.40;;
10174;SDS011;18221;38.704;0.152;2024-02-26T05:42:29;3.53;;;1.60;;
10174;SDS011;18221;38.704;0.152;2024-02-26T05:44:57;6.67;;;1.70;;
10174;SDS011;18221;38.704;0.152;2024-02-26T05:47:25;3.10;;;1.70;;
10174;SDS011;18221;38.704;0.152;2024-02-26T05:49:54;2.20;;;1.37;;
10174;SDS011;18221;38.704;0.152;2024-02-26T05:52:23;6.43;;;1.77;;
10174;SDS011;18221;38.704;0.152;2024-02-26T05:54:51;6.30;;;1.70;;
10174;SDS011;18221;38.704;0.152;2024-02-26T05:57:19;1.80;;;1.30;;
10174;SDS011;18221;38.704;0.152;2024-02-26T05:59:47;4.57;;;1.60;;
10174;SDS011;18221;38.704;0.152;2024-02-26T06:02:14;2.60;;;1.30;;
10174;SDS011;18221;38.704;0.152;2024-02-26T06:04:42;5.13;;;1.97;;
10174;SDS011;18221;38.704;0.152;2024-02-26T06:07:13;3.20;;;1.53;;
10174;SDS011;18221;38.704;0.152;2024-02-26T06:09:40;2.53;;;1.20;;
10174;SDS011;18221;38.704;0.152;2024-02-26T06:12:08;4.63;;;1.40;;
10174;SDS011;18221;38.704;0.152;2024-02-26T06:14:36;4.17;;;1.70;;
10174;SDS011;18221;38.704;0.152;2024-02-26T06:17:04;5.50;;;1.40;;
10174;SDS011;18221;38.704;0.152;2024-02-26T06:19:32;4.60;;;1.70;;
10174;SDS011;18221;38.704;0.152;2024-02-26T06:22:00;2.77;;;1.30;;
10174;SDS011;18221;38.704;0.152;2024-02-26T06:24:29;5.67;;;1.73;;
10174;SDS011;18221;38.704;0.152;2024-02-26T06:26:57;3.60;;;1.57;;
10174;SDS011;18221;38.704;0.152;2024-02-26T06:29:24;4.10;;;1.40;;
10174;SDS011;18221;38.704;0.152;2024-02-26T06:31:52;4.67;;;1.30;;
10174;SDS011;18221;38.704;0.152;2024-02-26T06:34:20;2.73;;;1.20;;
10174;SDS011;18221;38.704;0.152;2024-02-26T06:36:48;2.20;;;1.10;;
10174;SDS011;18221;38.704;0.152;2024-02-26T06:39:16;3.17;;;1.10;;
10174;SDS011;18221;38.704;0.152;2024-02-26T06:41:45;2.30;;;1.10;;
10174;SDS011;18221;38.704;0.152;2024-02-26T06:44:13;3.07;;;1.10;;
10174;SDS011;18221;38.704;0.152;2024-02-26T06:46:41;1.10;;;1.00;;
10174;SDS011;18221;38.704;0.152;2024-02-26T06:49:09;1.00;;;0.90;;
10174;SDS011;18221;38.704;0.152;2024-02-26T06:51:36;1.20;;;0.93;;
10174;SDS011;18221;38.704;0.152;2024-02-26T06:54:04;0.90;;;0.83;;
10174;SDS011;18221;38.704;0.152;2024-02-26T06:56:32;1.47;;;0.90;;
10174;SDS011;18221;38.704;0.152;2024-02-26T06:59:01;0.90;;;0.90;;
10174;SDS011;18221;38.704;0.152;2024-02-26T07:01:29;0.87;;;0.87;;
10174;SDS011;18221;38.704;0.152;2024-02-26T07:03:57;2.30;;;1.13;;
10174;SDS011;18221;38.704;0.152;2024-02-26T07:06:26;2.27;;;1.00;;
10174;SDS011;18221;38.704;0.152;2024-02-26T07:08:55;4.27;;;1.20;;
10174;SDS011;18221;38.704;0.152;2024-02-26T07:11:23;2.30;;;1.00;;
10174;SDS011;18221;38.704;0.152;2024-02-26T07:13:51;4.67;;;1.87;;
10174;SDS011;18221;38.704;0.152;2024-02-26T07:16:20;3.23;;;1.27;;
10174;SDS011;18221;38.704;0.152;2024-02-26T07:18:47;4.57;;;1.13;;
10174;SDS011;18221;38.704;0.152;2024-02-26T07:21:15;2.53;;;1.30;;
10174;SDS011;18221;38.704;0.152;2024-02-26T07:23:43;2.43;;;1.00;;
10174;SDS011;18221;38.704;0.152;2024-02-26T07:26:11;1.17;;;1.03;;
10174;SDS011;18221;38.704;0.152;2024-02-26T07:28:38;4.07;;;1.03;;
10174;SDS011;18221;38.704;0.152;2024-02-26T07:31:06;2.63;;;1.07;;
10174;SDS011;18221;38.704;0.152;2024-02-26T07:33:35;0.83;;;0.80;;
10174;SDS011;18221;38.704;0.152;2024-02-26T07:36:03;0.93;;;0.90;;
10174;SDS011;18221;38.704;0.152;2024-02-26T07:38:31;1.03;;;0.90;;
10174;SDS011;18221;38.704;0.152;2024-02-26T07:40:59;1.27;;;0.90;;
10174;SDS011;18221;38.704;0.152;2024-02-26T07:43:29;0.97;;;0.67;;
10174;SDS011;18221;38.704;0.152;2024-02-26T07:45:57;0.97;;;0.70;;
10174;SDS011;18221;38.704;0.152;2024-02-26T07:48:24;1.10;;;0.80;;
10174;SDS011;18221;38.704;0.152;2024-02-26T07:50:54;1.40;;;0.80;;
10174;SDS011;18221;38.704;0.152;2024-02-26T07:53:23;0.87;;;0.80;;
10174;SDS011;18221;38.704;0.152;2024-02-26T07:55:50;1.00;;;0.90;;
10174;SDS011;18221;38.704;0.152;2024-02-26T07:58:18;1.60;;;0.90;;
10174;SDS011;18221;38.704;0.152;2024-02-26T08:00:46;0.80;;;0.80;;
10174;SDS011;18221;38.704;0.152;2024-02-26T08:03:14;6.13;;;4.17;;
10174;SDS011;18221;38.704;0.152;2024-02-26T08:05:42;0.93;;;0.93;;
10174;SDS011;18221;38.704;0.152;2024-02-26T08:08:11;0.80;;;0.80;;
10174;SDS011;18221;38.704;0.152;2024-02-26T08:10:39;1.10;;;0.90;;
10174;SDS011;18221;38.704;0.152;2024-02-26T08:13:07;0.70;;;0.70;;
10174;SDS011;18221;38.704;0.152;2024-02-26T08:15:35;1.47;;;0.80;;
10174;SDS011;18221;38.704;0.152;2024-02-26T08:18:04;0.80;;;0.80;;
10174;SDS011;18221;38.704;0.152;2024-02-26T08:20:32;1.13;;;1.00;;
10174;SDS011;18221;38.704;0.152;2024-02-26T08:22:59;0.83;;;0.80;;
10174;SDS011;18221;38.704;0.152;2024-02-26T08:25:29;0.77;;;0.77;;
10174;SDS011;18221;38.704;0.152;2024-02-26T08:27:56;0.90;;;0.90;;
10174;SDS011;18221;38.704;0.152;2024-02-26T08:30:24;0.60;;;0.60;;
10174;SDS011;18221;38.704;0.152;2024-02-26T08:32:52;0.63;;;0.63;;
10174;SDS011;18221;38.704;0.152;2024-02-26T08:35:20;0.70;;;0.70;;
10174;SDS011;18221;38.704;0.152;2024-02-26T08:37:47;1.77;;;0.70;;
10174;SDS011;18221;38.704;0.152;2024-02-26T08:40:15;0.90;;;0.70;;
10174;SDS011;18221;38.704;0.152;2024-02-26T08:42:46;0.70;;;0.70;;
10174;SDS011;18221;38.704;0.152;2024-02-26T08:45:14;0.80;;;0.80;;
10174;SDS011;18221;38.704;0.152;2024-02-26T08:47:41;0.80;;;0.80;;
10174;SDS011;18221;38.704;0.152;2024-02-26T08:50:11;0.77;;;0.77;;
10174;SDS011;18221;38.704;0.152;2024-02-26T08:52:39;0.70;;;0.70;;
10174;SDS011;18221;38.704;0.152;2024-02-26T08:55:07;0.80;;;0.80;;
10174;SDS011;18221;38.704;0.152;2024-02-26T08:57:35;0.73;;;0.73;;
10174;SDS011;18221;38.704;0.152;2024-02-26T09:00:05;0.80;;;0.80;;
10174;SDS011;18221;38.704;0.152;2024-02-26T09:02:34;1.07;;;0.93;;
10174;SDS011;18221;38.704;0.152;2024-02-26T09:05:04;0.70;;;0.70;;
10174;SDS011;18221;38.704;0.152;2024-02-26T09:07:32;2.40;;;0.90;;
10174;SDS011;18221;38.704;0.152;2024-02-26T09:10:00;0.80;;;0.80;;
10174;SDS011;18221;38.704;0.152;2024-02-26T09:12:28;0.73;;;0.73;;
10174;SDS011;18221;38.704;0.152;2024-02-26T09:14:56;2.00;;;0.93;;
10174;SDS011;18221;38.704;0.152;2024-02-26T09:17:25;1.87;;;0.90;;
10174;SDS011;18221;38.704;0.152;2024-02-26T09:19:53;1.37;;;0.97;;
10174;SDS011;18221;38.704;0.152;2024-02-26T09:22:21;1.00;;;0.90;;
10174;SDS011;18221;38.704;0.152;2024-02-26T09:24:49;0.97;;;0.97;;
10174;SDS011;18221;38.704;0.152;2024-02-26T09:27:18;2.73;;;1.20;;
10174;SDS011;18221;38.704;0.152;2024-02-26T09:29:46;0.93;;;0.90;;
10174;SDS011;18221;38.704;0.152;2024-02-26T09:32:14;2.30;;;1.10;;
10174;SDS011;18221;38.704;0.152;2024-02-26T09:34:44;1.43;;;0.97;;
10174;SDS011;18221;38.704;0.152;2024-02-26T09:37:12;2.47;;;0.90;;
10174;SDS011;18221;38.704;0.152;2024-02-26T09:39:40;1.13;;;1.03;;
10174;SDS011;18221;38.704;0.152;2024-02-26T09:42:08;1.90;;;1.10;;
10174;SDS011;18221;38.704;0.152;2024-02-26T09:44:40;0.90;;;0.83;;
10174;SDS011;18221;38.704;0.152;2024-02-26T09:47:10;2.87;;;1.00;;
10174;SDS011;18221;38.704;0.152;2024-02-26T09:49:43;1.67;;;0.80;;
10174;SDS011;18221;38.704;0.152;2024-02-26T09:52:14;3.23;;;0.90;;
10174;SDS011;18221;38.704;0.152;2024-02-26T09:54:45;1.03;;;0.90;;
10174;SDS011;18221;38.704;0.152;2024-02-26T09:57:15;1.20;;;1.10;;
10174;SDS011;18221;38.704;0.152;2024-02-26T09:59:43;1.53;;;0.90;;
10174;SDS011;18221;38.704;0.152;2024-02-26T10:02:15;1.60;;;0.90;;
10174;SDS011;18221;38.704;0.152;2024-02-26T10:04:47;1.20;;;0.93;;
10174;SDS011;18221;38.704;0.152;2024-02-26T10:07:18;1.47;;;1.07;;
10174;SDS011;18221;38.704;0.152;2024-02-26T10:09:47;3.30;;;1.00;;
10174;SDS011;18221;38.704;0.152;2024-02-26T10:12:16;2.13;;;1.10;;
10174;SDS011;18221;38.704;0.152;2024-02-26T10:14:44;1.87;;;1.10;;
10174;SDS011;18221;38.704;0.152;2024-02-26T10:17:12;1.10;;;0.93;;
10174;SDS011;18221;38.704;0.152;2024-02-26T10:19:40;1.43;;;1.03;;
10174;SDS011;18221;38.704;0.152;2024-02-26T10:22:09;1.43;;;1.20;;
10174;SDS011;18221;38.704;0.152;2024-02-26T10:24:37;1.87;;;1.10;;
10174;SDS011;18221;38.704;0.152;2024-02-26T10:27:05;1.53;;;1.10;;
10174;SDS011;18221;38.704;0.152;2024-02-26T10:29:34;1.43;;;1.00;;
10174;SDS011;18221;38.704;0.152;2024-02-26T10:32:02;1.50;;;1.13;;
10174;SDS011;18221;38.704;0.152;2024-02-26T10:34:31;3.03;;;1.20;;
10174;SDS011;18221;38.704;0.152;2024-02-26T10:37:00;1.57;;;1.10;;
10174;SDS011;18221;38.704;0.152;2024-02-26T10:39:30;2.10;;;1.23;;
10174;SDS011;18221;38.704;0.152;2024-02-26T10:41:59;3.43;;;1.20;;
10174;SDS011;18221;38.704;0.152;2024-02-26T10:44:32;1.47;;;1.00;;
10174;SDS011;18221;38.704;0.152;2024-02-26T10:47:01;1.77;;;0.90;;
10174;SDS011;18221;38.704;0.152;2024-02-26T10:49:29;6.43;;;1.30;;
10174;SDS011;18221;38.704;0.152;2024-02-26T10:51:58;1.73;;;0.93;;
10174;SDS011;18221;38.704;0.152;2024-02-26T10:54:29;3.00;;;1.10;;
10174;SDS011;18221;38.704;0.152;2024-02-26T10:56:59;2.97;;;1.00;;
10174;SDS011;18221;38.704;0.152;2024-02-26T10:59:29;4.07;;;1.20;;
10174;SDS011;18221;38.704;0.152;2024-02-26T11:02:01;2.77;;;1.20;;
10174;SDS011;18221;38.704;0.152;2024-02-26T11:04:30;1.40;;;1.17;;
10174;SDS011;18221;38.704;0.152;2024-02-26T11:06:59;1.67;;;1.00;;
10174;SDS011;18221;38.704;0.152;2024-02-26T11:09:28;1.80;;;0.90;;
10174;SDS011;18221;38.704;0.152;2024-02-26T11:11:58;1.80;;;1.10;;
10174;SDS011;18221;38.704;0.152;2024-02-26T11:14:27;2.10;;;1.30;;
10174;SDS011;18221;38.704;0.152;2024-02-26T11:16:57;2.30;;;1.00;;
10174;SDS011;18221;38.704;0.152;2024-02-26T11:19:27;0.80;;;0.80;;
10174;SDS011;18221;38.704;0.152;2024-02-26T11:22:00;1.57;;;1.10;;
10174;SDS011;18221;38.704;0.152;2024-02-26T11:24:28;1.63;;;0.80;;
10174;SDS011;18221;38.704;0.152;2024-02-26T11:26:57;2.10;;;0.90;;
10174;SDS011;18221;38.704;0.152;2024-02-26T11:29:33;1.63;;;1.20;;
10174;SDS011;18221;38.704;0.152;2024-02-26T11:32:17;1.50;;;1.00;;
10174;SDS011;18221;38.704;0.152;2024-02-26T11:34:45;3.13;;;1.30;;
10174;SDS011;18221;38.704;0.152;2024-02-26T11:37:14;1.40;;;0.90;;
10174;SDS011;18221;38.704;0.152;2024-02-26T11:39:45;3.27;;;1.10;;
10174;SDS011;18221;38.704;0.152;2024-02-26T11:42:15;4.90;;;1.03;;
10174;SDS011;18221;38.704;0.152;2024-02-26T11:44:43;2.10;;;1.20;;
10174;SDS011;18221;38.704;0.152;2024-02-26T11:47:11;2.50;;;1.20;;
10174;SDS011;18221;38.704;0.152;2024-02-26T11:49:40;3.30;;;1.30;;
10174;SDS011;18221;38.704;0.152;2024-02-26T11:52:08;1.33;;;1.07;;
10174;SDS011;18221;38.704;0.152;2024-02-26T11:54:43;2.67;;;1.30;;
10174;SDS011;18221;38.704;0.152;2024-02-26T11:57:21;4.30;;;0.90;;
10174;SDS011;18221;38.704;0.152;2024-02-26T11:59:51;1.93;;;1.10;;
10174;SDS011;18221;38.704;0.152;2024-02-26T12:05:07;6.13;;;1.10;;
10174;SDS011;18221;38.704;0.152;2024-02-26T12:07:39;6.80;;;1.40;;
10174;SDS011;18221;38.704;0.152;2024-02-26T12:13:05;3.80;;;1.37;;
10174;SDS011;18221;38.704;0.152;2024-02-26T12:15:37;3.57;;;1.17;;
10174;SDS011;18221;38.704;0.152;2024-02-26T12:18:06;4.43;;;1.30;;
10174;SDS011;18221;38.704;0.152;2024-02-26T12:20:36;2.50;;;0.90;;
10174;SDS011;18221;38.704;0.152;2024-02-26T12:23:04;5.10;;;1.30;;
10174;SDS011;18221;38.704;0.152;2024-02-26T12:25:32;3.57;;;1.30;;
10174;SDS011;18221;38.704;0.152;2024-02-26T12:28:00;2.47;;;1.20;;
10174;SDS011;18221;38.704;0.152;2024-02-26T12:30:29;1.80;;;1.03;;
10174;SDS011;18221;38.704;0.152;2024-02-26T12:32:58;2.77;;;1.17;;
10174;SDS011;18221;38.704;0.152;2024-02-26T12:35:26;2.50;;;0.83;;
10174;SDS011;18221;38.704;0.152;2024-02-26T12:37:56;3.53;;;1.20;;
10174;SDS011;18221;38.704;0.152;2024-02-26T12:40:25;1.67;;;0.97;;
10174;SDS011;18221;38.704;0.152;2024-02-26T12:42:53;2.40;;;1.00;;
10174;SDS011;18221;38.704;0.152;2024-02-26T12:45:21;2.57;;;1.23;;
10174;SDS011;18221;38.704;0.152;2024-02-26T12:47:51;1.10;;;0.97;;
10174;SDS011;18221;38.704;0.152;2024-02-26T12:50:18;1.40;;;1.00;;
10174;SDS011;18221;38.704;0.152;2024-02-26T12:52:47;3.47;;;1.10;;
10174;SDS011;18221;38.704;0.152;2024-02-26T12:55:16;2.53;;;1.00;;
10174;SDS011;18221;38.704;0.152;2024-02-26T12:57:46;1.43;;;1.00;;
10174;SDS011;18221;38.704;0.152;2024-02-26T13:00:17;1.97;;;1.07;;
10174;SDS011;18221;38.704;0.152;2024-02-26T13:02:51;2.47;;;1.10;;
10174;SDS011;18221;38.704;0.152;2024-02-26T13:05:22;1.43;;;0.97;;
10174;SDS011;18221;38.704;0.152;2024-02-26T13:07:51;2.50;;;1.00;;
10174;SDS011;18221;38.704;0.152;2024-02-26T13:10:19;1.93;;;1.07;;
10174;SDS011;18221;38.704;0.152;2024-02-26T13:12:48;1.80;;;0.70;;
10174;SDS011;18221;38.704;0.152;2024-02-26T13:15:17;2.23;;;0.90;;
10174;SDS011;18221;38.704;0.152;2024-02-26T13:17:47;2.77;;;1.20;;
10174;SDS011;18221;38.704;0.152;2024-02-26T13:20:26;2.60;;;1.13;;
10174;SDS011;18221;38.704;0.152;2024-02-26T13:23:01;0.80;;;0.80;;
10174;SDS011;18221;38.704;0.152;2024-02-26T13:25:30;1.07;;;0.90;;
10174;SDS011;18221;38.704;0.152;2024-02-26T13:28:06;1.10;;;1.00;;
10174;SDS011;18221;38.704;0.152;2024-02-26T13:30:35;0.93;;;0.73;;
10174;SDS011;18221;38.704;0.152;2024-02-26T13:33:09;0.93;;;0.90;;
10174;SDS011;18221;38.704;0.152;2024-02-26T13:35:40;0.93;;;0.73;;
10174;SDS011;18221;38.704;0.152;2024-02-26T13:38:07;1.20;;;0.77;;
10174;SDS011;18221;38.704;0.152;2024-02-26T13:40:37;0.97;;;0.87;;
10174;SDS011;18221;38.704;0.152;2024-02-26T13:43:06;0.80;;;0.80;;
10174;SDS011;18221;38.704;0.152;2024-02-26T13:45:34;1.00;;;0.80;;
10174;SDS011;18221;38.704;0.152;2024-02-26T13:48:04;0.70;;;0.70;;
10174;SDS011;18221;38.704;0.152;2024-02-26T13:50:35;1.20;;;0.80;;
10174;SDS011;18221;38.704;0.152;2024-02-26T13:53:04;1.07;;;0.80;;
10174;SDS011;18221;38.704;0.152;2024-02-26T13:55:32;0.97;;;0.80;;
10174;SDS011;18221;38.704;0.152;2024-02-26T13:58:01;1.40;;;0.80;;
10174;SDS011;18221;38.704;0.152;2024-02-26T14:00:29;1.90;;;0.70;;
10174;SDS011;18221;38.704;0.152;2024-02-26T14:02:58;0.90;;;0.90;;
10174;SDS011;18221;38.704;0.152;2024-02-26T14:05:27;2.70;;;0.80;;
10174;SDS011;18221;38.704;0.152;2024-02-26T14:07:55;2.63;;;0.97;;
10174;SDS011;18221;38.704;0.152;2024-02-26T14:10:24;1.50;;;0.73;;
10174;SDS011;18221;38.704;0.152;2024-02-26T14:12:52;2.23;;;0.90;;
10174;SDS011;18221;38.704;0.152;2024-02-26T14:15:20;2.50;;;0.70;;
10174;SDS011;18221;38.704;0.152;2024-02-26T14:17:49;1.63;;;0.80;;
10174;SDS011;18221;38.704;0.152;2024-02-26T14:20:21;1.03;;;0.90;;
10174;SDS011;18221;38.704;0.152;2024-02-26T14:22:49;0.70;;;0.70;;
10174;SDS011;18221;38.704;0.152;2024-02-26T14:25:18;1.27;;;0.90;;
10174;SDS011;18221;38.704;0.152;2024-02-26T14:27:48;0.80;;;0.80;;
10174;SDS011;18221;38.704;0.152;2024-02-26T14:30:17;0.70;;;0.70;;
10174;SDS011;18221;38.704;0.152;2024-02-26T14:32:44;2.23;;;0.90;;
10174;SDS011;18221;38.704;0.152;2024-02-26T14:35:12;0.70;;;0.60;;
10174;SDS011;18221;38.704;0.152;2024-02-26T14:37:40;0.97;;;0.80;;
10174;SDS011;18221;38.704;0.152;2024-02-26T14:40:09;1.70;;;0.80;;
10174;SDS011;18221;38.704;0.152;2024-02-26T14:42:38;3.43;;;0.93;;
10174;SDS011;18221;38.704;0.152;2024-02-26T14:45:08;1.37;;;0.90;;
10174;SDS011;18221;38.704;0.152;2024-02-26T14:47:36;0.93;;;0.80;;
10174;SDS011;18221;38.704;0.152;2024-02-26T14:50:04;0.90;;;0.80;;
10174;SDS011;18221;38.704;0.152;2024-02-26T14:52:33;1.23;;;0.67;;
10174;SDS011;18221;38.704;0.152;2024-02-26T14:55:01;0.77;;;0.77;;
10174;SDS011;18221;38.704;0.152;2024-02-26T14:57:30;0.80;;;0.60;;
10174;SDS011;18221;38.704;0.152;2024-02-26T14:59:59;0.63;;;0.60;;
10174;SDS011;18221;38.704;0.152;2024-02-26T15:02:30;1.70;;;0.73;;
10174;SDS011;18221;38.704;0.152;2024-02-26T15:04:57;0.70;;;0.70;;
10174;SDS011;18221;38.704;0.152;2024-02-26T15:07:25;1.07;;;0.70;;
10174;SDS011;18221;38.704;0.152;2024-02-26T15:09:53;4.37;;;0.93;;
10174;SDS011;18221;38.704;0.152;2024-02-26T15:12:24;0.70;;;0.70;;